sensor_id;sensor_type;location;lat;lon;timestamp;P1;durP1;ratioP1;P2;durP2;ratioP2
66298;SDS011;53098;47.658;8.578;2022-08-21T00:01:02;5.15;;;1.15;;
66298;SDS011;53098;47.658;8.578;2022-08-21T00:03:28;4.20;;;1.23;;
66298;SDS011;53098;47.658;8.578;2022-08-21T00:05:54;5.33;;;1.37;;
66298;SDS011;53098;47.658;8.578;2022-08-21T00:08:20;1.77;;;0.95;;
66298;SDS011;53098;47.658;8.578;2022-08-21T00:10:46;7.65;;;1.50;;
66298;SDS011;53098;47.658;8.578;2022-08-21T00:13:12;5.00;;;1.45;;
66298;SDS011;53098;47.658;8.578;2022-08-21T00:15:38;5.88;;;1.27;;
66298;SDS011;53098;47.658;8.578;2022-08-21T00:18:04;3.80;;;1.23;;
66298;SDS011;53098;47.658;8.578;2022-08-21T00:20:30;4.85;;;1.10;;
66298;SDS011;53098;47.658;8.578;2022-08-21T00:22:55;5.50;;;1.42;;
66298;SDS011;53098;47.658;8.578;2022-08-21T00:25:21;7.07;;;2.00;;
66298;SDS011;53098;47.658;8.578;2022-08-21T00:27:46;13.05;;;2.05;;
66298;SDS011;53098;47.658;8.578;2022-08-21T00:30:12;10.70;;;2.40;;
66298;SDS011;53098;47.658;8.578;2022-08-21T00:32:39;6.22;;;2.30;;
66298;SDS011;53098;47.658;8.578;2022-08-21T00:35:08;11.95;;;2.03;;
66298;SDS011;53098;47.658;8.578;2022-08-21T00:37:34;8.38;;;2.10;;
66298;SDS011;53098;47.658;8.578;2022-08-21T00:39:59;8.00;;;2.30;;
66298;SDS011;53098;47.658;8.578;2022-08-21T00:42:25;18.27;;;2.20;;
66298;SDS011;53098;47.658;8.578;2022-08-21T00:44:51;21.38;;;2.25;;
66298;SDS011;53098;47.658;8.578;2022-08-21T00:47:16;35.70;;;2.53;;
66298;SDS011;53098;47.658;8.578;2022-08-21T00:49:42;15.05;;;1.95;;
66298;SDS011;53098;47.658;8.578;2022-08-21T00:52:10;4.28;;;1.85;;
66298;SDS011;53098;47.658;8.578;2022-08-21T00:54:35;4.68;;;1.80;;
66298;SDS011;53098;47.658;8.578;2022-08-21T00:57:03;3.45;;;1.50;;
66298;SDS011;53098;47.658;8.578;2022-08-21T00:59:29;2.55;;;1.38;;
66298;SDS011;53098;47.658;8.578;2022-08-21T01:01:57;2.47;;;1.30;;
66298;SDS011;53098;47.658;8.578;2022-08-21T01:04:22;3.50;;;1.40;;
66298;SDS011;53098;47.658;8.578;2022-08-21T01:06:48;3.33;;;1.10;;
66298;SDS011;53098;47.658;8.578;2022-08-21T01:09:13;3.57;;;1.10;;
66298;SDS011;53098;47.658;8.578;2022-08-21T01:11:39;4.15;;;1.13;;
66298;SDS011;53098;47.658;8.578;2022-08-21T01:14:04;5.32;;;1.45;;
66298;SDS011;53098;47.658;8.578;2022-08-21T01:16:30;3.22;;;1.50;;
66298;SDS011;53098;47.658;8.578;2022-08-21T01:18:55;5.50;;;1.45;;
66298;SDS011;53098;47.658;8.578;2022-08-21T01:21:22;2.77;;;1.20;;
66298;SDS011;53098;47.658;8.578;2022-08-21T01:23:49;3.75;;;1.42;;
66298;SDS011;53098;47.658;8.578;2022-08-21T01:26:16;7.15;;;1.38;;
66298;SDS011;53098;47.658;8.578;2022-08-21T01:28:43;6.32;;;1.25;;
66298;SDS011;53098;47.658;8.578;2022-08-21T01:31:09;4.72;;;1.33;;
66298;SDS011;53098;47.658;8.578;2022-08-21T01:33:35;6.25;;;2.38;;
66298;SDS011;53098;47.658;8.578;2022-08-21T01:36:01;9.13;;;2.28;;
66298;SDS011;53098;47.658;8.578;2022-08-21T01:38:26;4.85;;;1.80;;
66298;SDS011;53098;47.658;8.578;2022-08-21T01:40:52;5.97;;;1.90;;
66298;SDS011;53098;47.658;8.578;2022-08-21T01:43:17;8.43;;;1.90;;
66298;SDS011;53098;47.658;8.578;2022-08-21T01:45:42;5.17;;;2.03;;
66298;SDS011;53098;47.658;8.578;2022-08-21T01:48:07;10.68;;;2.30;;
66298;SDS011;53098;47.658;8.578;2022-08-21T01:50:33;5.82;;;2.30;;
66298;SDS011;53098;47.658;8.578;2022-08-21T01:52:58;13.87;;;2.47;;
66298;SDS011;53098;47.658;8.578;2022-08-21T01:55:24;9.23;;;2.53;;
66298;SDS011;53098;47.658;8.578;2022-08-21T01:57:49;4.78;;;1.92;;
66298;SDS011;53098;47.658;8.578;2022-08-21T02:00:15;4.50;;;1.90;;
66298;SDS011;53098;47.658;8.578;2022-08-21T02:02:41;5.88;;;2.10;;
66298;SDS011;53098;47.658;8.578;2022-08-21T02:05:07;3.65;;;1.70;;
66298;SDS011;53098;47.658;8.578;2022-08-21T02:07:46;6.43;;;2.58;;
66298;SDS011;53098;47.658;8.578;2022-08-21T02:10:13;7.32;;;2.30;;
66298;SDS011;53098;47.658;8.578;2022-08-21T02:12:38;8.32;;;1.90;;
66298;SDS011;53098;47.658;8.578;2022-08-21T02:15:04;5.37;;;2.47;;
66298;SDS011;53098;47.658;8.578;2022-08-21T02:17:37;9.52;;;2.83;;
66298;SDS011;53098;47.658;8.578;2022-08-21T02:20:02;8.88;;;2.63;;
66298;SDS011;53098;47.658;8.578;2022-08-21T02:22:28;6.50;;;2.00;;
66298;SDS011;53098;47.658;8.578;2022-08-21T02:24:53;5.80;;;2.10;;
66298;SDS011;53098;47.658;8.578;2022-08-21T02:27:18;7.13;;;3.00;;
66298;SDS011;53098;47.658;8.578;2022-08-21T02:29:44;5.53;;;2.30;;
66298;SDS011;53098;47.658;8.578;2022-08-21T02:32:09;5.47;;;2.50;;
66298;SDS011;53098;47.658;8.578;2022-08-21T02:34:34;8.00;;;2.27;;
66298;SDS011;53098;47.658;8.578;2022-08-21T02:36:59;9.73;;;2.53;;
66298;SDS011;53098;47.658;8.578;2022-08-21T02:39:25;8.10;;;2.47;;
66298;SDS011;53098;47.658;8.578;2022-08-21T02:41:50;8.07;;;3.27;;
66298;SDS011;53098;47.658;8.578;2022-08-21T02:44:15;7.50;;;2.53;;
66298;SDS011;53098;47.658;8.578;2022-08-21T02:46:41;8.03;;;2.67;;
66298;SDS011;53098;47.658;8.578;2022-08-21T02:49:06;8.33;;;3.40;;
66298;SDS011;53098;47.658;8.578;2022-08-21T02:51:31;7.60;;;3.43;;
66298;SDS011;53098;47.658;8.578;2022-08-21T02:53:56;7.37;;;3.47;;
66298;SDS011;53098;47.658;8.578;2022-08-21T02:56:22;7.37;;;3.23;;
66298;SDS011;53098;47.658;8.578;2022-08-21T02:58:48;7.53;;;3.77;;
66298;SDS011;53098;47.658;8.578;2022-08-21T03:01:14;8.18;;;2.92;;
66298;SDS011;53098;47.658;8.578;2022-08-21T03:03:40;11.10;;;3.20;;
66298;SDS011;53098;47.658;8.578;2022-08-21T03:06:06;11.20;;;3.33;;
66298;SDS011;53098;47.658;8.578;2022-08-21T03:08:32;15.60;;;3.47;;
66298;SDS011;53098;47.658;8.578;2022-08-21T03:10:57;12.23;;;3.40;;
66298;SDS011;53098;47.658;8.578;2022-08-21T03:13:22;13.27;;;3.03;;
66298;SDS011;53098;47.658;8.578;2022-08-21T03:15:48;11.17;;;2.80;;
66298;SDS011;53098;47.658;8.578;2022-08-21T03:18:14;10.77;;;2.88;;
66298;SDS011;53098;47.658;8.578;2022-08-21T03:20:40;12.20;;;3.05;;
66298;SDS011;53098;47.658;8.578;2022-08-21T03:23:06;8.85;;;3.00;;
66298;SDS011;53098;47.658;8.578;2022-08-21T03:25:31;9.00;;;2.85;;
66298;SDS011;53098;47.658;8.578;2022-08-21T03:27:57;10.95;;;2.90;;
66298;SDS011;53098;47.658;8.578;2022-08-21T03:30:23;11.77;;;3.10;;
66298;SDS011;53098;47.658;8.578;2022-08-21T03:32:48;11.60;;;3.55;;
66298;SDS011;53098;47.658;8.578;2022-08-21T03:35:14;10.73;;;3.63;;
66298;SDS011;53098;47.658;8.578;2022-08-21T03:37:39;16.70;;;3.80;;
66298;SDS011;53098;47.658;8.578;2022-08-21T03:40:05;12.88;;;3.80;;
66298;SDS011;53098;47.658;8.578;2022-08-21T03:42:31;10.45;;;3.83;;
66298;SDS011;53098;47.658;8.578;2022-08-21T03:44:56;14.23;;;4.35;;
66298;SDS011;53098;47.658;8.578;2022-08-21T03:47:22;14.77;;;4.03;;
66298;SDS011;53098;47.658;8.578;2022-08-21T03:49:47;10.48;;;4.07;;
66298;SDS011;53098;47.658;8.578;2022-08-21T03:52:13;10.48;;;4.00;;
66298;SDS011;53098;47.658;8.578;2022-08-21T03:54:38;13.43;;;4.57;;
66298;SDS011;53098;47.658;8.578;2022-08-21T03:57:03;13.17;;;4.10;;
66298;SDS011;53098;47.658;8.578;2022-08-21T03:59:28;11.80;;;4.20;;
66298;SDS011;53098;47.658;8.578;2022-08-21T04:01:55;13.13;;;4.50;;
66298;SDS011;53098;47.658;8.578;2022-08-21T04:04:20;14.43;;;4.90;;
66298;SDS011;53098;47.658;8.578;2022-08-21T04:06:45;12.67;;;4.20;;
66298;SDS011;53098;47.658;8.578;2022-08-21T04:09:11;12.80;;;4.37;;
66298;SDS011;53098;47.658;8.578;2022-08-21T04:11:36;11.23;;;4.15;;
66298;SDS011;53098;47.658;8.578;2022-08-21T04:14:01;13.80;;;4.30;;
66298;SDS011;53098;47.658;8.578;2022-08-21T04:16:27;11.38;;;4.25;;
66298;SDS011;53098;47.658;8.578;2022-08-21T04:18:52;12.80;;;4.13;;
66298;SDS011;53098;47.658;8.578;2022-08-21T04:21:17;13.83;;;3.80;;
66298;SDS011;53098;47.658;8.578;2022-08-21T04:23:43;14.37;;;4.30;;
66298;SDS011;53098;47.658;8.578;2022-08-21T04:26:08;17.00;;;4.93;;
66298;SDS011;53098;47.658;8.578;2022-08-21T04:28:33;11.97;;;4.20;;
66298;SDS011;53098;47.658;8.578;2022-08-21T04:30:58;19.50;;;4.73;;
66298;SDS011;53098;47.658;8.578;2022-08-21T04:33:24;14.77;;;4.33;;
66298;SDS011;53098;47.658;8.578;2022-08-21T04:35:49;14.13;;;4.47;;
66298;SDS011;53098;47.658;8.578;2022-08-21T04:38:15;14.80;;;4.45;;
66298;SDS011;53098;47.658;8.578;2022-08-21T04:40:40;15.13;;;4.53;;
66298;SDS011;53098;47.658;8.578;2022-08-21T04:43:06;14.02;;;4.72;;
66298;SDS011;53098;47.658;8.578;2022-08-21T04:45:34;14.55;;;4.65;;
66298;SDS011;53098;47.658;8.578;2022-08-21T04:48:00;15.57;;;4.53;;
66298;SDS011;53098;47.658;8.578;2022-08-21T04:50:36;12.60;;;3.92;;
66298;SDS011;53098;47.658;8.578;2022-08-21T04:55:27;15.85;;;4.00;;
66298;SDS011;53098;47.658;8.578;2022-08-21T04:57:53;13.40;;;4.03;;
66298;SDS011;53098;47.658;8.578;2022-08-21T05:00:19;15.32;;;3.95;;
66298;SDS011;53098;47.658;8.578;2022-08-21T05:02:44;14.40;;;4.65;;
66298;SDS011;53098;47.658;8.578;2022-08-21T05:05:10;13.98;;;4.47;;
66298;SDS011;53098;47.658;8.578;2022-08-21T05:07:35;14.20;;;3.93;;
66298;SDS011;53098;47.658;8.578;2022-08-21T05:10:01;12.95;;;4.40;;
66298;SDS011;53098;47.658;8.578;2022-08-21T05:12:27;17.55;;;4.45;;
66298;SDS011;53098;47.658;8.578;2022-08-21T05:14:52;16.48;;;4.82;;
66298;SDS011;53098;47.658;8.578;2022-08-21T05:17:17;19.20;;;5.90;;
66298;SDS011;53098;47.658;8.578;2022-08-21T05:19:43;19.30;;;6.40;;
66298;SDS011;53098;47.658;8.578;2022-08-21T05:22:08;18.13;;;5.77;;
66298;SDS011;53098;47.658;8.578;2022-08-21T05:24:33;14.60;;;4.83;;
66298;SDS011;53098;47.658;8.578;2022-08-21T05:26:58;18.57;;;5.80;;
66298;SDS011;53098;47.658;8.578;2022-08-21T05:29:24;15.93;;;4.55;;
66298;SDS011;53098;47.658;8.578;2022-08-21T05:31:50;15.55;;;5.43;;
66298;SDS011;53098;47.658;8.578;2022-08-21T05:34:19;12.47;;;5.07;;
66298;SDS011;53098;47.658;8.578;2022-08-21T05:36:45;12.18;;;5.03;;
66298;SDS011;53098;47.658;8.578;2022-08-21T05:39:11;13.57;;;4.63;;
66298;SDS011;53098;47.658;8.578;2022-08-21T05:41:36;11.27;;;4.90;;
66298;SDS011;53098;47.658;8.578;2022-08-21T05:44:01;15.63;;;4.57;;
66298;SDS011;53098;47.658;8.578;2022-08-21T05:46:27;11.52;;;4.43;;
66298;SDS011;53098;47.658;8.578;2022-08-21T05:48:52;11.80;;;5.43;;
66298;SDS011;53098;47.658;8.578;2022-08-21T05:51:17;11.87;;;4.87;;
66298;SDS011;53098;47.658;8.578;2022-08-21T05:53:43;10.27;;;4.43;;
66298;SDS011;53098;47.658;8.578;2022-08-21T05:56:09;8.68;;;4.05;;
66298;SDS011;53098;47.658;8.578;2022-08-21T05:58:34;11.52;;;4.53;;
66298;SDS011;53098;47.658;8.578;2022-08-21T06:01:00;12.95;;;4.63;;
66298;SDS011;53098;47.658;8.578;2022-08-21T06:03:28;12.32;;;4.75;;
66298;SDS011;53098;47.658;8.578;2022-08-21T06:05:54;8.55;;;4.22;;
66298;SDS011;53098;47.658;8.578;2022-08-21T06:08:19;9.27;;;4.20;;
66298;SDS011;53098;47.658;8.578;2022-08-21T06:10:45;9.38;;;4.07;;
66298;SDS011;53098;47.658;8.578;2022-08-21T06:13:11;8.85;;;4.13;;
66298;SDS011;53098;47.658;8.578;2022-08-21T06:15:37;8.82;;;4.10;;
66298;SDS011;53098;47.658;8.578;2022-08-21T06:18:02;7.15;;;3.58;;
66298;SDS011;53098;47.658;8.578;2022-08-21T06:20:27;10.00;;;4.03;;
66298;SDS011;53098;47.658;8.578;2022-08-21T06:22:52;8.07;;;3.57;;
66298;SDS011;53098;47.658;8.578;2022-08-21T06:25:18;9.32;;;3.42;;
66298;SDS011;53098;47.658;8.578;2022-08-21T06:27:43;9.10;;;4.10;;
66298;SDS011;53098;47.658;8.578;2022-08-21T06:30:09;8.43;;;3.95;;
66298;SDS011;53098;47.658;8.578;2022-08-21T06:32:34;8.88;;;4.30;;
66298;SDS011;53098;47.658;8.578;2022-08-21T06:34:59;9.60;;;3.78;;
66298;SDS011;53098;47.658;8.578;2022-08-21T06:37:25;8.47;;;3.70;;
66298;SDS011;53098;47.658;8.578;2022-08-21T06:39:50;8.20;;;3.70;;
66298;SDS011;53098;47.658;8.578;2022-08-21T06:42:16;7.07;;;3.37;;
66298;SDS011;53098;47.658;8.578;2022-08-21T06:44:42;8.88;;;3.58;;
66298;SDS011;53098;47.658;8.578;2022-08-21T06:47:07;7.80;;;3.47;;
66298;SDS011;53098;47.658;8.578;2022-08-21T06:49:33;7.40;;;3.43;;
66298;SDS011;53098;47.658;8.578;2022-08-21T06:51:58;7.57;;;3.40;;
66298;SDS011;53098;47.658;8.578;2022-08-21T06:54:23;7.57;;;3.17;;
66298;SDS011;53098;47.658;8.578;2022-08-21T06:56:49;9.27;;;3.53;;
66298;SDS011;53098;47.658;8.578;2022-08-21T06:59:14;7.82;;;3.85;;
66298;SDS011;53098;47.658;8.578;2022-08-21T07:01:40;8.43;;;4.00;;
66298;SDS011;53098;47.658;8.578;2022-08-21T07:04:05;17.43;;;4.43;;
66298;SDS011;53098;47.658;8.578;2022-08-21T07:06:30;9.80;;;4.07;;
66298;SDS011;53098;47.658;8.578;2022-08-21T07:08:56;10.20;;;3.90;;
66298;SDS011;53098;47.658;8.578;2022-08-21T07:11:22;9.80;;;3.73;;
66298;SDS011;53098;47.658;8.578;2022-08-21T07:13:48;8.05;;;3.47;;
66298;SDS011;53098;47.658;8.578;2022-08-21T07:16:13;8.15;;;3.85;;
66298;SDS011;53098;47.658;8.578;2022-08-21T07:18:38;8.60;;;3.53;;
66298;SDS011;53098;47.658;8.578;2022-08-21T07:21:04;8.57;;;3.47;;
66298;SDS011;53098;47.658;8.578;2022-08-21T07:23:31;8.48;;;4.03;;
66298;SDS011;53098;47.658;8.578;2022-08-21T07:25:57;9.43;;;4.53;;
66298;SDS011;53098;47.658;8.578;2022-08-21T07:28:23;8.75;;;4.18;;
66298;SDS011;53098;47.658;8.578;2022-08-21T07:30:52;9.23;;;4.50;;
66298;SDS011;53098;47.658;8.578;2022-08-21T07:33:17;8.63;;;3.90;;
66298;SDS011;53098;47.658;8.578;2022-08-21T07:35:42;8.30;;;4.03;;
66298;SDS011;53098;47.658;8.578;2022-08-21T07:38:08;7.80;;;3.87;;
66298;SDS011;53098;47.658;8.578;2022-08-21T07:40:33;8.10;;;4.13;;
66298;SDS011;53098;47.658;8.578;2022-08-21T07:42:58;7.68;;;3.40;;
66298;SDS011;53098;47.658;8.578;2022-08-21T07:45:24;10.40;;;4.15;;
66298;SDS011;53098;47.658;8.578;2022-08-21T07:47:50;8.80;;;3.92;;
66298;SDS011;53098;47.658;8.578;2022-08-21T07:50:15;8.50;;;4.00;;
66298;SDS011;53098;47.658;8.578;2022-08-21T07:52:41;8.13;;;4.35;;
66298;SDS011;53098;47.658;8.578;2022-08-21T07:55:08;8.57;;;3.80;;
66298;SDS011;53098;47.658;8.578;2022-08-21T07:57:33;7.57;;;3.58;;
66298;SDS011;53098;47.658;8.578;2022-08-21T07:59:58;7.07;;;3.55;;
66298;SDS011;53098;47.658;8.578;2022-08-21T08:02:24;7.22;;;3.65;;
66298;SDS011;53098;47.658;8.578;2022-08-21T08:04:50;7.05;;;3.50;;
66298;SDS011;53098;47.658;8.578;2022-08-21T08:07:15;8.33;;;3.77;;
66298;SDS011;53098;47.658;8.578;2022-08-21T08:09:40;8.65;;;3.20;;
66298;SDS011;53098;47.658;8.578;2022-08-21T08:12:06;6.80;;;3.20;;
66298;SDS011;53098;47.658;8.578;2022-08-21T08:14:31;7.43;;;3.47;;
66298;SDS011;53098;47.658;8.578;2022-08-21T08:16:56;6.33;;;3.00;;
66298;SDS011;53098;47.658;8.578;2022-08-21T08:19:22;8.50;;;3.43;;
66298;SDS011;53098;47.658;8.578;2022-08-21T08:21:47;6.57;;;3.03;;
66298;SDS011;53098;47.658;8.578;2022-08-21T08:24:12;5.80;;;2.77;;
66298;SDS011;53098;47.658;8.578;2022-08-21T08:26:37;8.52;;;4.07;;
66298;SDS011;53098;47.658;8.578;2022-08-21T08:29:03;6.37;;;3.10;;
66298;SDS011;53098;47.658;8.578;2022-08-21T08:31:28;7.60;;;3.20;;
66298;SDS011;53098;47.658;8.578;2022-08-21T08:33:53;5.97;;;2.90;;
66298;SDS011;53098;47.658;8.578;2022-08-21T08:36:19;5.73;;;2.80;;
66298;SDS011;53098;47.658;8.578;2022-08-21T08:38:44;5.77;;;2.70;;
66298;SDS011;53098;47.658;8.578;2022-08-21T08:41:14;8.15;;;2.67;;
66298;SDS011;53098;47.658;8.578;2022-08-21T08:43:41;7.18;;;2.95;;
66298;SDS011;53098;47.658;8.578;2022-08-21T08:46:10;6.85;;;3.15;;
66298;SDS011;53098;47.658;8.578;2022-08-21T08:48:53;7.47;;;3.33;;
66298;SDS011;53098;47.658;8.578;2022-08-21T08:54:06;6.78;;;3.10;;
66298;SDS011;53098;47.658;8.578;2022-08-21T08:56:33;6.90;;;3.00;;
66298;SDS011;53098;47.658;8.578;2022-08-21T08:59:02;6.82;;;3.13;;
66298;SDS011;53098;47.658;8.578;2022-08-21T09:01:28;6.57;;;2.97;;
66298;SDS011;53098;47.658;8.578;2022-08-21T09:03:53;6.57;;;2.85;;
66298;SDS011;53098;47.658;8.578;2022-08-21T09:11:28;7.55;;;2.53;;
66298;SDS011;53098;47.658;8.578;2022-08-21T09:16:50;8.13;;;2.80;;
66298;SDS011;53098;47.658;8.578;2022-08-21T09:25:08;6.88;;;2.47;;
66298;SDS011;53098;47.658;8.578;2022-08-21T09:27:35;6.60;;;2.83;;
66298;SDS011;53098;47.658;8.578;2022-08-21T09:30:02;6.85;;;3.30;;
66298;SDS011;53098;47.658;8.578;2022-08-21T09:32:29;6.93;;;2.90;;
66298;SDS011;53098;47.658;8.578;2022-08-21T09:37:28;6.53;;;2.63;;
66298;SDS011;53098;47.658;8.578;2022-08-21T09:39:54;6.18;;;2.75;;
66298;SDS011;53098;47.658;8.578;2022-08-21T09:42:29;7.53;;;2.83;;
66298;SDS011;53098;47.658;8.578;2022-08-21T09:47:50;7.75;;;2.80;;
66298;SDS011;53098;47.658;8.578;2022-08-21T09:50:16;7.50;;;2.73;;
66298;SDS011;53098;47.658;8.578;2022-08-21T09:52:43;5.78;;;2.45;;
66298;SDS011;53098;47.658;8.578;2022-08-21T09:55:13;12.07;;;3.17;;
66298;SDS011;53098;47.658;8.578;2022-08-21T09:57:39;6.43;;;2.83;;
66298;SDS011;53098;47.658;8.578;2022-08-21T10:02:45;7.00;;;2.97;;
66298;SDS011;53098;47.658;8.578;2022-08-21T10:05:21;9.48;;;3.53;;
66298;SDS011;53098;47.658;8.578;2022-08-21T10:07:47;7.88;;;2.50;;
66298;SDS011;53098;47.658;8.578;2022-08-21T10:10:17;7.47;;;2.63;;
66298;SDS011;53098;47.658;8.578;2022-08-21T10:15:36;6.88;;;2.40;;
66298;SDS011;53098;47.658;8.578;2022-08-21T10:25:31;7.10;;;2.25;;
66298;SDS011;53098;47.658;8.578;2022-08-21T10:43:34;10.95;;;2.40;;
66298;SDS011;53098;47.658;8.578;2022-08-21T10:45:38;5.03;;;1.40;;
66298;SDS011;53098;47.658;8.578;2022-08-21T10:48:07;5.25;;;1.60;;
66298;SDS011;53098;47.658;8.578;2022-08-21T10:50:44;7.75;;;1.60;;
66298;SDS011;53098;47.658;8.578;2022-08-21T10:55:48;8.25;;;1.40;;
66298;SDS011;53098;47.658;8.578;2022-08-21T10:58:23;5.95;;;1.50;;
66298;SDS011;53098;47.658;8.578;2022-08-21T11:00:55;6.25;;;1.70;;
66298;SDS011;53098;47.658;8.578;2022-08-21T11:03:35;4.20;;;1.58;;
66298;SDS011;53098;47.658;8.578;2022-08-21T11:06:05;5.93;;;1.73;;
66298;SDS011;53098;47.658;8.578;2022-08-21T11:08:43;5.15;;;1.67;;
66298;SDS011;53098;47.658;8.578;2022-08-21T11:13:48;5.32;;;1.52;;
66298;SDS011;53098;47.658;8.578;2022-08-21T11:18:48;5.05;;;1.73;;
66298;SDS011;53098;47.658;8.578;2022-08-21T11:23:45;5.80;;;1.55;;
66298;SDS011;53098;47.658;8.578;2022-08-21T11:26:17;5.93;;;2.00;;
66298;SDS011;53098;47.658;8.578;2022-08-21T11:31:46;5.32;;;1.55;;
66298;SDS011;53098;47.658;8.578;2022-08-21T11:37:01;7.30;;;1.33;;
66298;SDS011;53098;47.658;8.578;2022-08-21T11:39:52;4.95;;;1.38;;
66298;SDS011;53098;47.658;8.578;2022-08-21T11:44:49;5.23;;;1.63;;
66298;SDS011;53098;47.658;8.578;2022-08-21T11:47:22;3.55;;;1.25;;
66298;SDS011;53098;47.658;8.578;2022-08-21T11:49:54;6.78;;;1.30;;
66298;SDS011;53098;47.658;8.578;2022-08-21T11:55:05;6.00;;;1.20;;
66298;SDS011;53098;47.658;8.578;2022-08-21T11:57:35;5.90;;;1.33;;
66298;SDS011;53098;47.658;8.578;2022-08-21T12:02:30;5.75;;;1.30;;
66298;SDS011;53098;47.658;8.578;2022-08-21T12:05:00;6.75;;;1.80;;
66298;SDS011;53098;47.658;8.578;2022-08-21T12:09:56;4.55;;;1.50;;
66298;SDS011;53098;47.658;8.578;2022-08-21T12:12:26;3.40;;;1.38;;
66298;SDS011;53098;47.658;8.578;2022-08-21T12:15:16;2.50;;;1.08;;
66298;SDS011;53098;47.658;8.578;2022-08-21T12:17:38;4.10;;;1.30;;
66298;SDS011;53098;47.658;8.578;2022-08-21T12:22:41;6.10;;;1.40;;
66298;SDS011;53098;47.658;8.578;2022-08-21T12:25:10;3.53;;;1.30;;
66298;SDS011;53098;47.658;8.578;2022-08-21T12:28:02;3.28;;;1.15;;
66298;SDS011;53098;47.658;8.578;2022-08-21T12:33:02;3.72;;;1.20;;
66298;SDS011;53098;47.658;8.578;2022-08-21T12:35:32;3.63;;;1.05;;
66298;SDS011;53098;47.658;8.578;2022-08-21T12:40:50;3.03;;;1.10;;
66298;SDS011;53098;47.658;8.578;2022-08-21T12:45:51;2.38;;;0.80;;
66298;SDS011;53098;47.658;8.578;2022-08-21T12:48:23;3.00;;;0.90;;
66298;SDS011;53098;47.658;8.578;2022-08-21T12:50:52;2.30;;;0.85;;
66298;SDS011;53098;47.658;8.578;2022-08-21T12:53:24;4.18;;;1.05;;
66298;SDS011;53098;47.658;8.578;2022-08-21T12:55:51;2.60;;;0.82;;
66298;SDS011;53098;47.658;8.578;2022-08-21T12:58:20;2.30;;;1.00;;
66298;SDS011;53098;47.658;8.578;2022-08-21T13:00:53;1.55;;;0.90;;
66298;SDS011;53098;47.658;8.578;2022-08-21T13:03:19;2.15;;;1.08;;
66298;SDS011;53098;47.658;8.578;2022-08-21T13:05:45;5.03;;;1.10;;
66298;SDS011;53098;47.658;8.578;2022-08-21T13:08:11;1.93;;;1.10;;
66298;SDS011;53098;47.658;8.578;2022-08-21T13:10:37;2.78;;;1.02;;
66298;SDS011;53098;47.658;8.578;2022-08-21T13:13:05;2.53;;;1.00;;
66298;SDS011;53098;47.658;8.578;2022-08-21T13:15:33;2.67;;;0.70;;
66298;SDS011;53098;47.658;8.578;2022-08-21T13:17:59;2.70;;;0.88;;
66298;SDS011;53098;47.658;8.578;2022-08-21T13:20:27;2.25;;;0.80;;
66298;SDS011;53098;47.658;8.578;2022-08-21T13:22:53;3.13;;;1.00;;
66298;SDS011;53098;47.658;8.578;2022-08-21T13:25:20;4.25;;;1.10;;
66298;SDS011;53098;47.658;8.578;2022-08-21T13:27:57;3.35;;;0.90;;
66298;SDS011;53098;47.658;8.578;2022-08-21T13:30:23;2.40;;;0.90;;
66298;SDS011;53098;47.658;8.578;2022-08-21T13:32:54;5.00;;;1.05;;
66298;SDS011;53098;47.658;8.578;2022-08-21T13:35:22;3.55;;;1.23;;
66298;SDS011;53098;47.658;8.578;2022-08-21T13:37:49;3.85;;;0.98;;
66298;SDS011;53098;47.658;8.578;2022-08-21T13:40:32;3.85;;;1.00;;
66298;SDS011;53098;47.658;8.578;2022-08-21T13:43:03;3.15;;;1.00;;
66298;SDS011;53098;47.658;8.578;2022-08-21T13:45:31;2.47;;;0.80;;
66298;SDS011;53098;47.658;8.578;2022-08-21T13:47:56;1.85;;;0.90;;
66298;SDS011;53098;47.658;8.578;2022-08-21T13:50:24;4.38;;;1.02;;
66298;SDS011;53098;47.658;8.578;2022-08-21T13:53:19;4.35;;;1.20;;
66298;SDS011;53098;47.658;8.578;2022-08-21T13:55:39;2.75;;;1.00;;
66298;SDS011;53098;47.658;8.578;2022-08-21T13:58:05;3.65;;;1.20;;
66298;SDS011;53098;47.658;8.578;2022-08-21T14:00:32;3.08;;;1.00;;
66298;SDS011;53098;47.658;8.578;2022-08-21T14:03:08;2.22;;;0.85;;
66298;SDS011;53098;47.658;8.578;2022-08-21T14:05:35;3.33;;;1.08;;
66298;SDS011;53098;47.658;8.578;2022-08-21T14:08:05;3.10;;;1.00;;
66298;SDS011;53098;47.658;8.578;2022-08-21T14:12:58;3.22;;;1.00;;
66298;SDS011;53098;47.658;8.578;2022-08-21T14:15:27;2.42;;;1.40;;
66298;SDS011;53098;47.658;8.578;2022-08-21T14:17:52;1.38;;;0.70;;
66298;SDS011;53098;47.658;8.578;2022-08-21T14:20:28;3.00;;;1.00;;
66298;SDS011;53098;47.658;8.578;2022-08-21T14:22:54;3.08;;;1.10;;
66298;SDS011;53098;47.658;8.578;2022-08-21T14:27:52;2.50;;;1.00;;
66298;SDS011;53098;47.658;8.578;2022-08-21T14:32:43;3.57;;;0.93;;
66298;SDS011;53098;47.658;8.578;2022-08-21T14:35:09;2.40;;;1.00;;
66298;SDS011;53098;47.658;8.578;2022-08-21T14:37:35;5.57;;;1.10;;
66298;SDS011;53098;47.658;8.578;2022-08-21T14:40:00;2.37;;;0.90;;
66298;SDS011;53098;47.658;8.578;2022-08-21T14:42:25;3.55;;;1.10;;
66298;SDS011;53098;47.658;8.578;2022-08-21T14:44:51;3.13;;;1.00;;
66298;SDS011;53098;47.658;8.578;2022-08-21T14:47:17;6.00;;;1.58;;
66298;SDS011;53098;47.658;8.578;2022-08-21T14:49:43;3.47;;;0.90;;
66298;SDS011;53098;47.658;8.578;2022-08-21T14:52:08;1.92;;;1.00;;
66298;SDS011;53098;47.658;8.578;2022-08-21T14:54:33;2.90;;;1.02;;
66298;SDS011;53098;47.658;8.578;2022-08-21T14:57:00;2.80;;;0.90;;
66298;SDS011;53098;47.658;8.578;2022-08-21T14:59:26;3.95;;;1.50;;
66298;SDS011;53098;47.658;8.578;2022-08-21T15:01:52;3.78;;;1.27;;
66298;SDS011;53098;47.658;8.578;2022-08-21T15:04:17;2.27;;;0.77;;
66298;SDS011;53098;47.658;8.578;2022-08-21T15:06:42;3.50;;;1.10;;
66298;SDS011;53098;47.658;8.578;2022-08-21T15:09:08;2.97;;;1.00;;
66298;SDS011;53098;47.658;8.578;2022-08-21T15:11:33;2.77;;;1.00;;
66298;SDS011;53098;47.658;8.578;2022-08-21T15:14:00;3.13;;;1.00;;
66298;SDS011;53098;47.658;8.578;2022-08-21T15:16:26;3.80;;;1.00;;
66298;SDS011;53098;47.658;8.578;2022-08-21T15:18:53;3.80;;;1.30;;
66298;SDS011;53098;47.658;8.578;2022-08-21T15:21:18;4.40;;;1.17;;
66298;SDS011;53098;47.658;8.578;2022-08-21T15:23:43;2.20;;;0.77;;
66298;SDS011;53098;47.658;8.578;2022-08-21T15:26:08;2.63;;;1.07;;
66298;SDS011;53098;47.658;8.578;2022-08-21T15:28:34;2.93;;;1.20;;
66298;SDS011;53098;47.658;8.578;2022-08-21T15:31:00;3.30;;;1.10;;
66298;SDS011;53098;47.658;8.578;2022-08-21T15:33:25;4.50;;;1.10;;
66298;SDS011;53098;47.658;8.578;2022-08-21T15:35:51;3.00;;;0.97;;
66298;SDS011;53098;47.658;8.578;2022-08-21T15:38:16;2.60;;;1.05;;
66298;SDS011;53098;47.658;8.578;2022-08-21T15:40:42;2.30;;;1.10;;
66298;SDS011;53098;47.658;8.578;2022-08-21T15:43:07;3.42;;;1.13;;
66298;SDS011;53098;47.658;8.578;2022-08-21T15:45:34;4.60;;;1.23;;
66298;SDS011;53098;47.658;8.578;2022-08-21T15:48:00;4.57;;;1.30;;
66298;SDS011;53098;47.658;8.578;2022-08-21T15:50:25;5.10;;;1.13;;
66298;SDS011;53098;47.658;8.578;2022-08-21T15:52:50;2.97;;;0.97;;
66298;SDS011;53098;47.658;8.578;2022-08-21T15:55:15;3.53;;;1.30;;
66298;SDS011;53098;47.658;8.578;2022-08-21T15:57:45;3.70;;;1.00;;
66298;SDS011;53098;47.658;8.578;2022-08-21T16:00:15;3.92;;;1.30;;
66298;SDS011;53098;47.658;8.578;2022-08-21T16:02:44;4.13;;;1.25;;
66298;SDS011;53098;47.658;8.578;2022-08-21T16:05:10;3.97;;;1.25;;
66298;SDS011;53098;47.658;8.578;2022-08-21T16:07:36;3.17;;;1.10;;
66298;SDS011;53098;47.658;8.578;2022-08-21T16:10:02;2.90;;;1.10;;
66298;SDS011;53098;47.658;8.578;2022-08-21T16:12:29;3.70;;;1.23;;
66298;SDS011;53098;47.658;8.578;2022-08-21T16:14:55;3.45;;;1.30;;
66298;SDS011;53098;47.658;8.578;2022-08-21T16:17:21;3.33;;;1.30;;
66298;SDS011;53098;47.658;8.578;2022-08-21T16:19:49;4.78;;;1.23;;